createdAt,value
2023-04-02T00:00:15.679Z,41.5
2023-04-02T00:05:15.671Z,41.9
2023-04-02T00:10:15.711Z,42.2
2023-04-02T00:15:15.741Z,42.9
2023-04-02T00:20:15.773Z,43.8
2023-04-02T00:25:15.751Z,45.7
2023-04-02T00:30:15.751Z,46.2
2023-04-02T00:35:15.787Z,47.2
2023-04-02T00:40:15.932Z,46.8
2023-04-02T00:45:15.862Z,46.4
2023-04-02T00:50:15.761Z,45.8
2023-04-02T00:55:15.804Z,45.4
2023-04-02T01:00:15.834Z,45.9
2023-04-02T01:05:15.850Z,46.4
2023-04-02T01:10:15.892Z,47.4
2023-04-02T01:15:15.878Z,47.5
2023-04-02T01:20:15.833Z,48.2
2023-04-02T01:25:15.864Z,48.5
2023-04-02T01:30:15.788Z,49.1
2023-04-02T01:35:15.988Z,49.3
2023-04-02T01:40:15.875Z,49.6
2023-04-02T01:45:15.926Z,50.0
2023-04-02T01:50:15.925Z,50.4
2023-04-02T01:55:15.865Z,51.0
2023-04-02T02:00:15.978Z,50.3
2023-04-02T02:05:16.089Z,50.4
2023-04-02T02:10:16.100Z,50.7
2023-04-02T02:15:16.214Z,50.3
2023-04-02T02:20:15.963Z,50.1
2023-04-02T02:25:16.048Z,50.1
2023-04-02T02:30:15.984Z,49.7
2023-04-02T02:35:15.942Z,49.5
2023-04-02T02:40:16.045Z,49.3
2023-04-02T02:45:16.013Z,49.1
2023-04-02T02:50:16.020Z,49.0
2023-04-02T02:55:16.193Z,48.7
2023-04-02T03:00:16.120Z,48.4
2023-04-02T03:05:16.063Z,48.2
2023-04-02T03:10:16.075Z,48.3
2023-04-02T03:15:16.359Z,48.3
2023-04-02T03:20:16.078Z,48.4
2023-04-02T03:25:16.059Z,48.5
2023-04-02T03:30:16.109Z,48.4
2023-04-02T03:35:16.062Z,48.5
2023-04-02T03:40:16.247Z,48.4
2023-04-02T03:45:16.131Z,48.4
2023-04-02T03:50:16.099Z,48.3
2023-04-02T03:55:16.175Z,48.6
2023-04-02T04:00:17.188Z,48.7
2023-04-02T04:05:17.201Z,48.8
2023-04-02T04:10:17.251Z,49.0
2023-04-02T04:15:17.186Z,48.9
2023-04-02T04:20:17.299Z,48.2
2023-04-02T04:25:17.207Z,48.0
2023-04-02T04:30:17.159Z,48.0
2023-04-02T04:35:17.171Z,47.9
2023-04-02T04:40:17.253Z,47.9
2023-04-02T04:45:17.260Z,48.1
2023-04-02T04:50:17.203Z,47.9
2023-04-02T04:55:17.273Z,48.1
2023-04-02T05:00:17.357Z,47.5
2023-04-02T05:05:17.427Z,47.4
2023-04-02T05:10:17.390Z,47.3
2023-04-02T05:15:17.594Z,47.2
2023-04-02T05:20:17.355Z,47.1
2023-04-02T05:25:17.294Z,46.8
2023-04-02T05:30:19.102Z,46.7
2023-04-02T05:35:17.491Z,46.8
2023-04-02T05:40:17.366Z,46.9
2023-04-02T05:45:17.341Z,46.8
2023-04-02T05:50:17.423Z,46.5
2023-04-02T05:55:17.367Z,46.4
2023-04-02T06:00:15.363Z,46.1
2023-04-02T06:05:15.553Z,46.0
2023-04-02T06:10:15.457Z,45.8
2023-04-02T06:15:15.378Z,45.5
2023-04-02T06:20:15.465Z,45.5
2023-04-02T06:25:15.709Z,45.5
2023-04-02T06:30:15.718Z,45.6
2023-04-02T06:35:15.684Z,45.2
2023-04-02T06:40:15.511Z,45.2
2023-04-02T06:45:15.481Z,45.0
2023-04-02T06:50:15.612Z,44.7
2023-04-02T06:55:15.549Z,44.3
2023-04-02T07:00:15.526Z,44.3
2023-04-02T07:05:15.586Z,44.3
2023-04-02T07:10:15.739Z,43.8
2023-04-02T07:15:15.548Z,43.4
2023-04-02T07:20:15.602Z,42.9
2023-04-02T07:25:15.623Z,42.6
2023-04-02T07:30:15.571Z,42.5
2023-04-02T07:35:15.726Z,42.0
2023-04-02T07:40:15.603Z,42.1
2023-04-02T07:45:15.649Z,42.0
2023-04-02T07:50:15.627Z,42.2
2023-04-02T07:55:15.579Z,42.5
2023-04-02T08:00:15.692Z,42.5
2023-04-02T08:05:15.602Z,42.4
2023-04-02T08:10:15.656Z,42.4
2023-04-02T08:15:15.709Z,42.0
2023-04-02T08:20:15.690Z,41.8
2023-04-02T08:25:15.801Z,41.5
2023-04-02T08:30:15.789Z,41.4
2023-04-02T08:35:15.729Z,41.5
2023-04-02T08:40:15.786Z,41.3
2023-04-02T08:45:26.618Z,41.2
2023-04-02T08:50:15.694Z,41.1
2023-04-02T08:55:15.715Z,40.7
2023-04-02T09:00:15.777Z,40.1
2023-04-02T09:05:15.750Z,39.9
2023-04-02T09:10:15.768Z,40.0
2023-04-02T09:15:15.749Z,39.6
2023-04-02T09:20:15.767Z,39.1
2023-04-02T09:25:15.764Z,38.9
2023-04-02T09:30:15.871Z,38.4
2023-04-02T09:35:25.439Z,38.0
2023-04-02T09:40:15.905Z,37.8
2023-04-02T09:45:15.863Z,37.6
2023-04-02T09:50:15.948Z,37.4
2023-04-02T09:55:15.830Z,36.7
2023-04-02T10:00:29.738Z,36.0
2023-04-02T10:05:23.543Z,35.9
2023-04-02T10:10:15.974Z,35.7
2023-04-02T10:15:16.076Z,35.2
2023-04-02T10:20:16.008Z,34.7
2023-04-02T10:25:16.027Z,35.0
2023-04-02T10:30:15.970Z,34.4
2023-04-02T10:35:16.013Z,34.7
2023-04-02T10:40:16.015Z,34.9
2023-04-02T10:45:16.122Z,34.9
2023-04-02T10:50:15.992Z,34.4
2023-04-02T10:55:16.010Z,34.3
2023-04-02T11:00:16.053Z,34.6
2023-04-02T11:05:16.109Z,34.0
2023-04-02T11:10:15.992Z,33.4
2023-04-02T11:15:16.080Z,33.3
2023-04-02T11:20:16.016Z,32.6
2023-04-02T11:25:16.060Z,32.1
2023-04-02T11:30:16.060Z,32.3
2023-04-02T11:35:16.123Z,32.1
2023-04-02T11:40:16.226Z,31.8
2023-04-02T11:45:16.041Z,31.8
2023-04-02T11:50:16.112Z,31.6
2023-04-02T11:55:16.099Z,31.7
2023-04-02T12:00:18.095Z,31.4
2023-04-02T12:05:16.190Z,31.2
2023-04-02T12:10:16.250Z,30.9
2023-04-02T12:15:16.163Z,30.8
2023-04-02T12:20:16.302Z,31.3
2023-04-02T12:25:16.256Z,30.8
2023-04-02T12:30:16.173Z,30.4
2023-04-02T12:35:16.164Z,30.6
2023-04-02T12:40:16.214Z,30.0
2023-04-02T12:45:16.328Z,30.9
2023-04-02T12:50:16.173Z,30.7
2023-04-02T12:55:16.239Z,30.5
2023-04-02T13:00:16.165Z,30.3
2023-04-02T13:05:16.256Z,30.3
2023-04-02T13:10:16.255Z,29.5
2023-04-02T13:15:16.244Z,29.5
2023-04-02T13:20:16.339Z,29.7
2023-04-02T13:25:16.366Z,29.4
2023-04-02T13:30:16.425Z,29.0
2023-04-02T13:35:16.429Z,29.4
2023-04-02T13:40:16.325Z,29.0
2023-04-02T13:45:16.282Z,29.0
2023-04-02T13:50:16.364Z,28.1
2023-04-02T13:55:16.627Z,28.6
2023-04-02T14:00:16.297Z,29.2
2023-04-02T14:05:16.444Z,28.6
2023-04-02T14:10:16.656Z,28.7
2023-04-02T14:15:16.493Z,28.6
2023-04-02T14:20:16.438Z,28.8
2023-04-02T14:25:16.431Z,28.9
2023-04-02T14:30:16.501Z,28.3
2023-04-02T14:35:16.392Z,28.7
2023-04-02T14:40:16.484Z,27.8
2023-04-02T14:45:16.461Z,28.6
2023-04-02T14:50:16.403Z,28.1
2023-04-02T14:55:16.471Z,27.6
2023-04-02T15:00:16.522Z,27.1
2023-04-02T15:05:16.584Z,27.1
2023-04-02T15:10:16.450Z,26.8
2023-04-02T15:15:19.110Z,26.9
2023-04-02T15:20:16.651Z,26.3
2023-04-02T15:25:16.485Z,26.8
2023-04-02T15:30:16.522Z,25.3
2023-04-02T15:35:16.530Z,26.0
2023-04-02T15:40:16.681Z,26.3
2023-04-02T15:45:16.556Z,25.4
2023-04-02T15:50:16.601Z,26.8
2023-04-02T15:55:16.584Z,25.3
2023-04-02T16:00:16.645Z,24.3
2023-04-02T16:05:16.636Z,24.5
2023-04-02T16:10:19.156Z,25.1
2023-04-02T16:15:16.652Z,24.6
2023-04-02T16:20:16.635Z,27.1
2023-04-02T16:25:16.695Z,25.1
2023-04-02T16:30:16.659Z,24.7
2023-04-02T16:35:41.262Z,25.0
2023-04-02T16:40:16.715Z,23.7
2023-04-02T16:45:18.759Z,24.3
2023-04-02T16:50:16.730Z,24.9
2023-04-02T16:55:16.861Z,25.1
2023-04-02T17:00:16.712Z,24.6
2023-04-02T17:05:16.783Z,24.1
2023-04-02T17:10:16.759Z,23.9
2023-04-02T17:15:24.782Z,23.6
2023-04-02T17:20:16.755Z,24.4
2023-04-02T17:25:16.773Z,24.5
2023-04-02T17:30:16.775Z,25.1
2023-04-02T17:35:16.830Z,23.4
2023-04-02T17:40:16.758Z,23.3
2023-04-02T17:45:17.007Z,21.0
2023-04-02T17:50:17.276Z,22.6
2023-04-02T17:55:16.783Z,21.0
2023-04-02T18:00:16.910Z,22.2
2023-04-02T18:05:16.981Z,21.1
2023-04-02T18:10:16.988Z,19.9
2023-04-02T18:15:16.880Z,19.4
2023-04-02T18:20:16.920Z,20.2
2023-04-02T18:25:16.858Z,20.9
2023-04-02T18:30:16.950Z,21.1
2023-04-02T18:35:16.885Z,21.0
2023-04-02T18:40:16.947Z,17.9
2023-04-02T18:45:16.871Z,18.0
2023-04-02T18:50:17.144Z,18.6
2023-04-02T18:55:16.923Z,20.0
2023-04-02T19:00:17.097Z,19.7
2023-04-02T19:05:16.988Z,21.5
2023-04-02T19:10:17.046Z,22.1
2023-04-02T19:15:17.068Z,18.5
2023-04-02T19:20:17.066Z,17.9
2023-04-02T19:25:16.979Z,17.8
2023-04-02T19:30:17.042Z,20.0
2023-04-02T19:35:17.125Z,17.5
2023-04-02T19:40:17.005Z,20.7
2023-04-02T19:45:17.179Z,19.4
2023-04-02T19:50:17.066Z,19.0
2023-04-02T19:55:17.155Z,18.2
2023-04-02T20:00:17.152Z,16.1
2023-04-02T20:06:22.131Z,19.4
2023-04-02T20:10:17.155Z,18.6
2023-04-02T20:15:17.233Z,16.8
2023-04-02T20:20:17.091Z,17.6
2023-04-02T20:25:17.142Z,17.1
2023-04-02T20:30:17.142Z,17.9
2023-04-02T20:35:17.304Z,18.5
2023-04-02T20:40:17.164Z,19.1
2023-04-02T20:45:17.321Z,19.1
2023-04-02T20:50:17.196Z,20.0
2023-04-02T20:55:17.295Z,17.9
2023-04-02T21:00:17.397Z,17.9
2023-04-02T21:05:17.252Z,18.1
2023-04-02T21:10:17.304Z,19.4
2023-04-02T21:15:17.172Z,18.1
2023-04-02T21:20:17.344Z,20.0
2023-04-02T21:25:17.296Z,16.6
2023-04-02T21:30:17.326Z,18.5
2023-04-02T21:35:17.350Z,19.0
2023-04-02T21:40:17.277Z,17.5
2023-04-02T21:45:17.321Z,18.9
2023-04-02T21:50:17.327Z,16.9
2023-04-02T21:55:17.260Z,16.7
2023-04-02T22:00:17.300Z,17.5
2023-04-02T22:05:17.344Z,18.0
2023-04-02T22:10:17.367Z,17.7
2023-04-02T22:15:17.438Z,15.9
2023-04-02T22:20:17.391Z,18.9
2023-04-02T22:25:17.411Z,16.6
2023-04-02T22:30:17.391Z,17.2
2023-04-02T22:35:17.373Z,17.6
2023-04-02T22:40:15.358Z,18.2
2023-04-02T22:45:15.399Z,17.3
2023-04-02T22:50:15.464Z,16.5
2023-04-02T22:55:15.595Z,16.4
2023-04-02T23:00:15.460Z,16.2
2023-04-02T23:05:15.492Z,18.6
2023-04-02T23:10:15.480Z,16.0
2023-04-02T23:15:15.420Z,16.6
2023-04-02T23:20:15.433Z,18.3
2023-04-02T23:25:15.534Z,17.0
2023-04-02T23:30:15.506Z,17.5
2023-04-02T23:35:15.521Z,17.4
2023-04-02T23:40:15.466Z,16.1
2023-04-02T23:45:15.542Z,16.7
2023-04-02T23:50:15.598Z,17.8
2023-04-02T23:55:15.463Z,14.6
